Airfield :
LOGIN :

Register | Disclaimer

   EN    FR    IT 

 










Legend :    VFR   Marginal VFR   IFR   Intensive IFR   Very Intensive IFR
Visi :
Ceiling :
>= 8 km
>= 3000ft
5 to 8 km
1000 to 3000 ft
1500m to 5 km
500 to 1000 ft
800 to 1500m
200 to 500 ft
< 800m
< 200 ft
Symbols :   Thunderstorms  Fog  Heavy snow  Heavy precipitations  Wind > 20 kt
SIGMETs :     Misc.  Thunderstorms  Icing  Turbulence  Mountain Waves  Volcanic Ashes







- Airport Elevation : 1106 ft
- Download approach charts


LFSO - Nancy / Ochey

CURRENT METAR :
  • 160830Z AUTO 20011KT 0800 0700 R20/1000D FG OVC003 02/02 Q1012 NOSIG

EXPIRED METARs :
  • 160800Z AUTO 21007KT 0750 R20/0900N FG OVC003 02/01 Q1012
  • 160730Z AUTO 22008KT 0650 0600 R20/0750N FG OVC003 02/02 Q1012 BECMG 0800 FG
  • 160700Z AUTO 22010KT 0650 R20/0800N FG OVC003 02/01 Q1012 BECMG 0800 FG
  • 160630Z AUTO 24010KT 0600 R20/0750D FG OVC003 02/01 Q1011
  • 160600Z AUTO 23011KT 0800 0750 R20/0900D FG OVC003 01/01 Q1011

TAF TAF LFSO
Valid from the 16 at 09:00 until the 17 at 09:00 UTC


160800Z 1609/1709 22010KT 0600 FG OVC003
TEMPO 1612/1615 1500 BR OVC005
BECMG 1621/1623 1500 BR
TEMPO 1701/1707 4500 -RA BKN004 OVC010
BECMG 1708/1709 4000 BR OVC007
No reported NOTAMs for that airfield.



MET'MAP, your aeronautical weather chart ! - Copyright ORBIFLY December 2007 - Disclaimer

ORBIFLY MET'MAP TEAM :

Programming & Development : Alexandra Zaïnal
Concept & Development : Baudouin d'Aumeries
Co-Development & Prog : Marc-Olivier Méhu
Technical & hardware support : Manuel Goepfert

Contact : metmap@orbifly.com




SOURCES & CREDITS :

   NOAA